Hamilton, Texas
Current Conditions -  °F | °C
As of 4:15 AM on Sunday 26 Oct 2014 (Local Time) from KMNZ Reporting Station
Clear Clear  
Wind Chill: 62°   Ceiling: Unl
Heat Index: 62°   Visibility: 10mi
Dew Point: 56°   Wind: 8mph
Humidity: 79%   Direction: 180°S
Pressure: 30.04"   Gusts: NA
Location:  31.7°N, 98.12°W
Report Text: KMNZ 260915Z AUTO 18007KT 10SM CLR 17/13 A3004 RMK AO2 T01690132
Loading
Personal Weather Stations






























Interactive Weather Map
Tropical Storm Tracking
New forecast layout! Learn more

10-Day Weather Forecast

Advertisements
Track Severe Weather on mobile